createdAt,value
2016-07-18T00:00:08.477Z,14.85
2016-07-18T00:01:08.475Z,14.95
2016-07-18T00:02:08.467Z,14.87
2016-07-18T00:03:09.177Z,15
2016-07-18T00:04:08.530Z,15
2016-07-18T00:05:08.448Z,15.01
2016-07-18T00:06:08.472Z,15.16
2016-07-18T00:07:08.455Z,15.08
2016-07-18T00:08:08.460Z,15.22
2016-07-18T00:09:09.158Z,15.23
2016-07-18T00:10:09.154Z,15.2
2016-07-18T00:11:08.475Z,15.26
2016-07-18T00:12:08.453Z,15.26
2016-07-18T00:13:08.440Z,15.27
2016-07-18T00:14:08.430Z,15.33
2016-07-18T00:15:08.450Z,15.37
2016-07-18T00:16:09.139Z,15.45
2016-07-18T00:17:08.442Z,15.41
2016-07-18T00:18:08.436Z,15.45
2016-07-18T00:19:08.415Z,15.53
2016-07-18T00:20:08.439Z,15.51
2016-07-18T00:21:08.417Z,15.56
2016-07-18T00:22:08.415Z,15.58
2016-07-18T00:23:08.397Z,15.6
2016-07-18T00:24:08.396Z,15.65
2016-07-18T00:25:08.396Z,15.62
2016-07-18T00:26:08.397Z,15.6
2016-07-18T00:27:08.392Z,15.67
2016-07-18T00:28:08.390Z,15.73
2016-07-18T00:29:08.386Z,15.74
2016-07-18T00:30:08.369Z,15.73
2016-07-18T00:31:08.371Z,15.75
2016-07-18T00:32:08.375Z,15.77
2016-07-18T00:33:08.374Z,15.75
2016-07-18T00:34:08.357Z,15.73
2016-07-18T00:35:08.360Z,15.7
2016-07-18T00:36:08.364Z,15.84
2016-07-18T00:37:08.357Z,15.92
2016-07-18T00:38:08.346Z,15.86
2016-07-18T00:39:08.359Z,15.93
2016-07-18T00:40:09.059Z,15.81
2016-07-18T00:41:08.347Z,15.95
2016-07-18T00:42:08.329Z,15.95
2016-07-18T00:43:08.345Z,15.96
2016-07-18T00:44:08.330Z,15.92
2016-07-18T00:45:08.383Z,15.96
2016-07-18T00:46:09.051Z,15.99
2016-07-18T00:47:09.069Z,15.93
2016-07-18T00:48:08.330Z,15.95
2016-07-18T00:49:08.306Z,15.96
2016-07-18T00:50:08.309Z,15.96
2016-07-18T00:51:08.344Z,16.07
2016-07-18T00:52:08.310Z,16.02
2016-07-18T00:53:08.308Z,16.04
2016-07-18T00:54:08.301Z,16.06
2016-07-18T00:55:08.300Z,16.07
2016-07-18T00:56:08.290Z,16.02
2016-07-18T00:57:08.290Z,16
2016-07-18T00:58:08.291Z,16.08
2016-07-18T00:59:08.292Z,16.06
2016-07-18T01:00:08.275Z,16.04
2016-07-18T01:01:08.275Z,16.08
2016-07-18T01:02:08.990Z,16.07
2016-07-18T01:03:08.296Z,16.07
2016-07-18T01:04:08.279Z,15.98
2016-07-18T01:05:09.266Z,15.95
2016-07-18T01:06:08.276Z,16
2016-07-18T01:07:08.269Z,15.95
2016-07-18T01:08:08.263Z,15.96
2016-07-18T01:09:08.257Z,15.89
2016-07-18T01:10:08.247Z,15.89
2016-07-18T01:11:08.261Z,15.81
2016-07-18T01:12:08.249Z,15.91
2016-07-18T01:13:08.245Z,15.93
2016-07-18T01:14:08.239Z,15.88
2016-07-18T01:15:08.247Z,15.89
2016-07-18T01:16:08.250Z,15.88
2016-07-18T01:17:08.258Z,15.93
2016-07-18T01:18:08.984Z,15.92
2016-07-18T01:19:08.233Z,15.92
2016-07-18T01:20:08.244Z,15.77
2016-07-18T01:21:08.228Z,15.73
2016-07-18T01:22:08.222Z,15.75
2016-07-18T01:23:08.242Z,15.75
2016-07-18T01:24:08.214Z,15.74
2016-07-18T01:25:08.213Z,15.77
2016-07-18T01:26:08.210Z,15.74
2016-07-18T01:27:08.206Z,15.77
2016-07-18T01:28:08.924Z,15.74
2016-07-18T01:29:08.203Z,15.81
2016-07-18T01:30:08.203Z,15.8
2016-07-18T01:31:08.197Z,15.91
2016-07-18T01:32:08.200Z,15.78
2016-07-18T01:33:08.199Z,15.75
2016-07-18T01:34:08.385Z,15.83
2016-07-18T01:35:08.389Z,15.86
2016-07-18T01:36:08.176Z,15.86
2016-07-18T01:37:08.167Z,15.92
2016-07-18T01:38:08.169Z,15.83
2016-07-18T01:39:08.169Z,15.86
2016-07-18T01:40:08.158Z,15.84
2016-07-18T01:41:08.162Z,15.83
2016-07-18T01:42:08.158Z,15.83
2016-07-18T01:43:08.149Z,15.86
2016-07-18T01:44:08.162Z,15.92
2016-07-18T01:45:08.164Z,15.81
2016-07-18T01:46:08.136Z,15.77
2016-07-18T01:47:08.850Z,15.77
2016-07-18T01:48:08.861Z,15.77
2016-07-18T01:49:08.146Z,15.78
2016-07-18T01:50:08.843Z,15.84
2016-07-18T01:51:08.145Z,15.73
2016-07-18T01:52:08.121Z,15.73
2016-07-18T01:53:08.124Z,15.74
2016-07-18T01:54:08.122Z,15.71
2016-07-18T01:55:08.125Z,15.75
2016-07-18T01:56:08.132Z,15.7
2016-07-18T01:57:08.113Z,15.65
2016-07-18T01:58:08.113Z,15.58
2016-07-18T01:59:08.118Z,15.63
2016-07-18T02:00:08.117Z,15.67
2016-07-18T02:01:08.123Z,15.7
2016-07-18T02:02:08.121Z,15.75
2016-07-18T02:03:08.826Z,15.74
2016-07-18T02:04:08.117Z,15.73
2016-07-18T02:05:08.300Z,15.7
2016-07-18T02:06:08.075Z,15.7
2016-07-18T02:07:08.096Z,15.7
2016-07-18T02:08:08.078Z,15.7
2016-07-18T02:09:08.121Z,15.74
2016-07-18T02:10:08.081Z,15.68
2016-07-18T02:11:08.089Z,15.75
2016-07-18T02:12:08.072Z,15.73
2016-07-18T02:13:08.082Z,15.75
2016-07-18T02:14:08.311Z,15.73
2016-07-18T02:15:08.083Z,15.73
2016-07-18T02:16:08.801Z,15.89
2016-07-18T02:17:08.089Z,15.88
2016-07-18T02:18:08.819Z,15.92
2016-07-18T02:19:08.060Z,15.83
2016-07-18T02:20:08.096Z,15.92
2016-07-18T02:21:08.066Z,15.96
2016-07-18T02:22:08.078Z,15.96
2016-07-18T02:23:08.036Z,15.95
2016-07-18T02:24:08.032Z,15.96
2016-07-18T02:25:08.041Z,15.93
2016-07-18T02:26:08.022Z,15.92
2016-07-18T02:27:08.018Z,16.02
2016-07-18T02:28:08.031Z,15.93
2016-07-18T02:29:08.027Z,15.95
2016-07-18T02:30:08.023Z,15.93
2016-07-18T02:31:08.041Z,15.91
2016-07-18T02:32:08.754Z,15.81
2016-07-18T02:33:08.035Z,15.84
2016-07-18T02:34:08.010Z,15.93
2016-07-18T02:35:08.016Z,15.86
2016-07-18T02:36:08.011Z,15.75
2016-07-18T02:37:08.010Z,15.81
2016-07-18T02:38:08.004Z,15.8
2016-07-18T02:39:08.005Z,15.75
2016-07-18T02:40:08.009Z,15.8
2016-07-18T02:41:07.990Z,15.74
2016-07-18T02:42:08.016Z,15.68
2016-07-18T02:43:08.035Z,15.73
2016-07-18T02:44:08.031Z,15.62
2016-07-18T02:45:08.042Z,15.6
2016-07-18T02:46:07.963Z,15.56
2016-07-18T02:47:07.963Z,15.53
2016-07-18T02:48:07.958Z,15.47
2016-07-18T02:49:07.957Z,15.58
2016-07-18T02:50:07.971Z,15.47
2016-07-18T02:51:07.956Z,15.49
2016-07-18T02:52:07.951Z,15.53
2016-07-18T02:53:07.947Z,15.56
2016-07-18T02:54:07.960Z,15.62
2016-07-18T02:55:07.943Z,15.56
2016-07-18T02:56:07.959Z,15.56
2016-07-18T02:57:07.934Z,15.49
2016-07-18T02:58:07.936Z,15.53
2016-07-18T02:59:07.920Z,15.56
2016-07-18T03:00:07.929Z,15.53
2016-07-18T03:01:07.929Z,15.45
2016-07-18T03:02:07.922Z,15.55
2016-07-18T03:03:07.972Z,15.49
2016-07-18T03:04:07.919Z,15.53
2016-07-18T03:05:07.924Z,15.56
2016-07-18T03:06:07.908Z,15.53
2016-07-18T03:07:07.899Z,15.59
2016-07-18T03:08:08.607Z,15.59
2016-07-18T03:09:07.890Z,15.58
2016-07-18T03:10:07.896Z,15.6
2016-07-18T03:11:07.898Z,15.55
2016-07-18T03:12:07.891Z,15.56
2016-07-18T03:13:07.891Z,15.53
2016-07-18T03:14:07.885Z,15.53
2016-07-18T03:15:07.895Z,15.56
2016-07-18T03:16:07.878Z,15.52
2016-07-18T03:17:07.875Z,15.52
2016-07-18T03:18:07.888Z,15.47
2016-07-18T03:19:07.864Z,15.52
2016-07-18T03:20:07.865Z,15.56
2016-07-18T03:21:07.868Z,15.55
2016-07-18T03:22:07.859Z,15.53
2016-07-18T03:23:07.853Z,15.62
2016-07-18T03:24:07.861Z,15.68
2016-07-18T03:25:07.839Z,15.63
2016-07-18T03:26:07.847Z,15.63
2016-07-18T03:27:07.853Z,15.62
2016-07-18T03:28:07.844Z,15.59
2016-07-18T03:29:07.835Z,15.7
2016-07-18T03:30:07.845Z,15.62
2016-07-18T03:31:07.824Z,15.67
2016-07-18T03:32:07.833Z,15.67
2016-07-18T03:33:07.821Z,15.62
2016-07-18T03:34:07.812Z,15.63
2016-07-18T03:35:07.805Z,15.7
2016-07-18T03:36:07.800Z,15.68
2016-07-18T03:37:07.818Z,15.73
2016-07-18T03:38:07.803Z,15.77
2016-07-18T03:39:07.807Z,15.77
2016-07-18T03:40:07.811Z,15.74
2016-07-18T03:41:07.801Z,15.74
2016-07-18T03:42:07.803Z,15.73
2016-07-18T03:43:07.793Z,15.91
2016-07-18T03:44:07.800Z,15.91
2016-07-18T03:45:07.800Z,15.86
2016-07-18T03:46:07.779Z,15.89
2016-07-18T03:47:07.792Z,15.88
2016-07-18T03:48:07.778Z,15.91
2016-07-18T03:49:07.769Z,15.99
2016-07-18T03:50:07.771Z,16.02
2016-07-18T03:51:07.766Z,16
2016-07-18T03:52:07.773Z,15.98
2016-07-18T03:53:07.770Z,15.99
2016-07-18T03:54:07.774Z,15.91
2016-07-18T03:55:07.748Z,16.06
2016-07-18T03:56:07.753Z,16
2016-07-18T03:57:07.740Z,16.08
2016-07-18T03:58:07.744Z,16.04
2016-07-18T03:59:07.750Z,16.11
2016-07-18T04:00:07.750Z,16.13
2016-07-18T04:01:07.741Z,16.14
2016-07-18T04:02:07.740Z,16.13
2016-07-18T04:03:07.736Z,16.13
2016-07-18T04:04:07.750Z,16.17
2016-07-18T04:05:07.726Z,16.18
2016-07-18T04:06:07.728Z,16.08
2016-07-18T04:07:07.729Z,16.18
2016-07-18T04:08:07.713Z,16.17
2016-07-18T04:09:07.732Z,16.17
2016-07-18T04:10:07.751Z,16.22
2016-07-18T04:11:07.717Z,16.21
2016-07-18T04:12:08.456Z,16.16
2016-07-18T04:13:07.735Z,16.18
2016-07-18T04:14:07.716Z,16.22
2016-07-18T04:15:07.741Z,16.14
2016-07-18T04:16:07.695Z,16.18
2016-07-18T04:17:07.697Z,16.16
2016-07-18T04:18:07.695Z,16.18
2016-07-18T04:19:07.693Z,16.22
2016-07-18T04:20:07.689Z,16.08
2016-07-18T04:21:07.726Z,16.22
2016-07-18T04:22:07.680Z,16.11
2016-07-18T04:23:07.704Z,16.25
2016-07-18T04:24:07.670Z,16.21
2016-07-18T04:25:08.378Z,16.25
2016-07-18T04:26:07.668Z,16.17
2016-07-18T04:27:07.678Z,16.25
2016-07-18T04:28:07.675Z,16.18
2016-07-18T04:29:07.652Z,16.25
2016-07-18T04:30:07.668Z,16.22
2016-07-18T04:31:07.649Z,16.27
2016-07-18T04:32:07.648Z,16.25
2016-07-18T04:33:07.669Z,16.29
2016-07-18T04:34:07.688Z,16.29
2016-07-18T04:35:07.683Z,16.3
2016-07-18T04:36:07.632Z,16.32
2016-07-18T04:37:07.635Z,16.21
2016-07-18T04:38:07.630Z,16.29
2016-07-18T04:39:07.627Z,16.3
2016-07-18T04:40:07.634Z,16.29
2016-07-18T04:41:07.627Z,16.27
2016-07-18T04:42:07.618Z,16.32
2016-07-18T04:43:07.623Z,16.39
2016-07-18T04:44:07.635Z,16.44
2016-07-18T04:45:07.646Z,16.44
2016-07-18T04:46:07.606Z,16.48
2016-07-18T04:47:07.607Z,16.39
2016-07-18T04:48:07.609Z,16.36
2016-07-18T04:49:07.598Z,16.4
2016-07-18T04:50:07.604Z,16.32
2016-07-18T04:51:07.609Z,16.37
2016-07-18T04:52:07.591Z,16.34
2016-07-18T04:53:07.606Z,16.32
2016-07-18T04:54:07.606Z,16.34
2016-07-18T04:55:07.608Z,16.37
2016-07-18T04:56:07.596Z,16.39
2016-07-18T04:57:07.585Z,16.26
2016-07-18T04:58:07.596Z,16.34
2016-07-18T04:59:07.566Z,16.3
2016-07-18T05:00:07.579Z,16.27
2016-07-18T05:01:07.576Z,16.3
2016-07-18T05:02:07.583Z,16.29
2016-07-18T05:03:07.568Z,16.25
2016-07-18T05:04:07.716Z,16.22
2016-07-18T05:05:07.575Z,16.16
2016-07-18T05:06:07.571Z,16.25
2016-07-18T05:07:07.562Z,16.22
2016-07-18T05:08:07.593Z,16.16
2016-07-18T05:09:07.556Z,16.16
2016-07-18T05:10:08.261Z,16.22
2016-07-18T05:11:07.548Z,16.21
2016-07-18T05:12:07.539Z,16.17
2016-07-18T05:13:07.544Z,16.29
2016-07-18T05:14:07.550Z,16.29
2016-07-18T05:15:07.552Z,16.3
2016-07-18T05:16:07.549Z,16.42
2016-07-18T05:17:07.518Z,16.51
2016-07-18T05:18:07.522Z,16.48
2016-07-18T05:19:07.537Z,16.49
2016-07-18T05:20:07.518Z,16.49
2016-07-18T05:21:07.535Z,16.51
2016-07-18T05:22:07.513Z,16.54
2016-07-18T05:23:07.511Z,16.59
2016-07-18T05:24:07.516Z,16.59
2016-07-18T05:25:07.517Z,16.62
2016-07-18T05:26:07.511Z,16.66
2016-07-18T05:27:07.547Z,16.67
2016-07-18T05:28:07.505Z,16.54
2016-07-18T05:29:07.499Z,16.52
2016-07-18T05:30:07.496Z,16.52
2016-07-18T05:31:07.491Z,16.34
2016-07-18T05:32:07.493Z,16.3
2016-07-18T05:33:08.242Z,16.27
2016-07-18T05:34:07.524Z,16.3
2016-07-18T05:35:07.486Z,16.27
2016-07-18T05:36:07.486Z,16.3
2016-07-18T05:37:07.483Z,16.25
2016-07-18T05:38:07.471Z,16.27
2016-07-18T05:39:07.476Z,16.29
2016-07-18T05:40:07.469Z,16.26
2016-07-18T05:41:07.459Z,16.29
2016-07-18T05:42:07.456Z,16.25
2016-07-18T05:43:07.465Z,16.21
2016-07-18T05:44:07.462Z,16.25
2016-07-18T05:45:07.468Z,16.3
2016-07-18T05:46:08.186Z,16.18
2016-07-18T05:47:07.451Z,16.32
2016-07-18T05:48:07.434Z,16.34
2016-07-18T05:49:07.438Z,16.39
2016-07-18T05:50:07.429Z,16.39
2016-07-18T05:51:07.437Z,16.47
2016-07-18T05:52:07.438Z,16.45
2016-07-18T05:53:07.429Z,16.55
2016-07-18T05:54:07.430Z,16.49
2016-07-18T05:55:07.427Z,16.48
2016-07-18T05:56:07.451Z,16.49
2016-07-18T05:57:07.453Z,16.48
2016-07-18T05:58:07.467Z,16.47
2016-07-18T05:59:07.488Z,16.42
2016-07-18T06:00:07.479Z,16.49
2016-07-18T06:01:07.428Z,16.39
2016-07-18T06:02:07.460Z,16.36
2016-07-18T06:03:07.444Z,16.44
2016-07-18T06:04:07.447Z,16.37
2016-07-18T06:05:07.440Z,16.37
2016-07-18T06:06:07.415Z,16.36
2016-07-18T06:07:07.419Z,16.33
2016-07-18T06:08:07.431Z,16.4
2016-07-18T06:09:07.448Z,16.4
2016-07-18T06:10:07.448Z,16.34
2016-07-18T06:11:08.177Z,16.36
2016-07-18T06:12:07.388Z,16.34
2016-07-18T06:13:07.381Z,16.33
2016-07-18T06:14:07.378Z,16.34
2016-07-18T06:15:07.389Z,16.3
2016-07-18T06:16:07.400Z,16.36
2016-07-18T06:17:07.407Z,16.51
2016-07-18T06:18:07.411Z,16.44
2016-07-18T06:19:07.431Z,16.62
2016-07-18T06:20:07.429Z,16.66
2016-07-18T06:21:07.442Z,16.72
2016-07-18T06:22:07.446Z,16.84
2016-07-18T06:23:07.458Z,16.88
2016-07-18T06:24:08.157Z,16.85
2016-07-18T06:25:07.353Z,16.94
2016-07-18T06:26:07.354Z,16.95
2016-07-18T06:27:07.376Z,17
2016-07-18T06:28:07.379Z,16.97
2016-07-18T06:29:07.377Z,17.07
2016-07-18T06:30:07.410Z,17.05
2016-07-18T06:31:07.432Z,17.06
2016-07-18T06:32:07.429Z,17.07
2016-07-18T06:33:07.425Z,17.05
2016-07-18T06:34:07.467Z,17.1
2016-07-18T06:35:07.459Z,17.02
2016-07-18T06:36:07.434Z,17.03
2016-07-18T06:37:07.339Z,17.09
2016-07-18T06:38:07.367Z,17.15
2016-07-18T06:39:07.357Z,17.12
2016-07-18T06:40:07.385Z,17.22
2016-07-18T06:41:07.367Z,17.15
2016-07-18T06:42:08.082Z,17.17
2016-07-18T06:43:07.375Z,17.2
2016-07-18T06:44:07.382Z,17.24
2016-07-18T06:45:07.434Z,17.22
2016-07-18T06:46:07.420Z,17.32
2016-07-18T06:47:07.342Z,17.28
2016-07-18T06:48:07.364Z,17.45
2016-07-18T06:49:07.367Z,17.55
2016-07-18T06:50:07.346Z,17.79
2016-07-18T06:51:07.333Z,18.05
2016-07-18T06:52:08.053Z,18.27
2016-07-18T06:53:07.349Z,18.54
2016-07-18T06:54:07.349Z,18.72
2016-07-18T06:55:07.367Z,18.91
2016-07-18T06:56:07.366Z,19
2016-07-18T06:57:07.389Z,19.2
2016-07-18T06:58:07.324Z,19.47
2016-07-18T06:59:07.351Z,20.05
2016-07-18T07:00:07.350Z,20.38
2016-07-18T07:01:07.361Z,20.78
2016-07-18T07:02:07.322Z,21.18
2016-07-18T07:03:07.329Z,21.85
2016-07-18T07:04:07.324Z,22.49
2016-07-18T07:05:07.332Z,22.63
2016-07-18T07:06:07.344Z,22.88
2016-07-18T07:07:07.345Z,23.32
2016-07-18T07:08:07.351Z,23.48
2016-07-18T07:09:07.371Z,24.02
2016-07-18T07:10:07.368Z,24.7
2016-07-18T07:11:07.361Z,25.32
2016-07-18T07:12:08.560Z,25.99
2016-07-18T07:13:07.384Z,26.34
2016-07-18T07:14:07.344Z,26.22
2016-07-18T07:15:07.338Z,25.59
2016-07-18T07:16:07.334Z,24.97
2016-07-18T07:17:07.359Z,24.7
2016-07-18T07:18:07.351Z,24.42
2016-07-18T07:19:07.342Z,23.92
2016-07-18T07:20:07.336Z,23.62
2016-07-18T07:21:07.345Z,23.41
2016-07-18T07:22:07.370Z,23.01
2016-07-18T07:23:07.363Z,22.78
2016-07-18T07:24:07.379Z,22.88
2016-07-18T07:25:07.372Z,23.16
2016-07-18T07:26:08.128Z,23.82
2016-07-18T07:27:07.312Z,24.71
2016-07-18T07:28:07.313Z,25.52
2016-07-18T07:29:07.312Z,25.56
2016-07-18T07:30:07.323Z,25.24
2016-07-18T07:31:07.319Z,25.39
2016-07-18T07:32:07.337Z,25.75
2016-07-18T07:33:07.340Z,25.7
2016-07-18T07:34:07.365Z,25.85
2016-07-18T07:35:07.352Z,25.66
2016-07-18T07:36:07.361Z,25.54
2016-07-18T07:37:07.368Z,25.94
2016-07-18T07:38:07.377Z,26.09
2016-07-18T07:39:07.398Z,26.27
2016-07-18T07:40:07.358Z,25.99
2016-07-18T07:41:07.350Z,25.52
2016-07-18T07:42:07.370Z,25.02
2016-07-18T07:43:07.368Z,25.3
2016-07-18T07:44:07.384Z,25.76
2016-07-18T07:45:07.375Z,26.47
2016-07-18T07:46:07.394Z,27.15
2016-07-18T07:47:07.402Z,27.75
2016-07-18T07:48:07.392Z,28.16
2016-07-18T07:49:07.414Z,28.33
2016-07-18T07:50:07.397Z,28.48
2016-07-18T07:51:07.402Z,28.9
2016-07-18T07:52:07.413Z,29.29
2016-07-18T07:53:07.433Z,29.75
2016-07-18T07:54:07.428Z,30.14
2016-07-18T07:55:07.432Z,30.22
2016-07-18T07:56:07.477Z,30.51
2016-07-18T07:57:08.153Z,30.39
2016-07-18T07:58:07.473Z,30.48
2016-07-18T07:59:07.465Z,30.64
2016-07-18T08:00:07.463Z,30.79
2016-07-18T08:01:07.502Z,30.81
2016-07-18T08:02:07.480Z,31.13
2016-07-18T08:03:07.491Z,30.91
2016-07-18T08:04:07.487Z,30.88
2016-07-18T08:05:07.523Z,30.84
2016-07-18T08:06:07.495Z,30.69
2016-07-18T08:07:07.506Z,30.7
2016-07-18T08:08:07.537Z,30.63
2016-07-18T08:09:07.527Z,30.29
2016-07-18T08:10:07.534Z,30.39
2016-07-18T08:11:07.554Z,30.6
2016-07-18T08:12:08.504Z,30.69
2016-07-18T08:13:07.548Z,30.18
2016-07-18T08:14:07.572Z,29.43
2016-07-18T08:15:07.699Z,28.57
2016-07-18T08:16:07.579Z,28.02
2016-07-18T08:17:07.588Z,27.42
2016-07-18T08:18:07.591Z,27.08
2016-07-18T08:19:07.591Z,26.47
2016-07-18T08:20:07.586Z,26.52
2016-07-18T08:21:07.589Z,26.64
2016-07-18T08:22:07.602Z,26.84
2016-07-18T08:23:07.607Z,27
2016-07-18T08:24:07.615Z,27.15
2016-07-18T08:25:07.617Z,27.21
2016-07-18T08:26:07.623Z,27.23
2016-07-18T08:27:08.344Z,27.05
2016-07-18T08:28:07.643Z,26.9
2016-07-18T08:29:07.647Z,26.87
2016-07-18T08:30:07.641Z,26.78
2016-07-18T08:31:08.362Z,26.5
2016-07-18T08:32:07.653Z,26.04
2016-07-18T08:33:07.666Z,25.49
2016-07-18T08:34:07.657Z,25.07
2016-07-18T08:35:07.654Z,24.61
2016-07-18T08:36:07.662Z,24.45
2016-07-18T08:37:07.720Z,24.27
2016-07-18T08:38:07.696Z,24.09
2016-07-18T08:39:07.688Z,24
2016-07-18T08:40:07.699Z,23.85
2016-07-18T08:41:07.689Z,23.96
2016-07-18T08:42:07.687Z,24.03
2016-07-18T08:43:07.701Z,23.97
2016-07-18T08:44:07.702Z,23.99
2016-07-18T08:45:07.738Z,24.03
2016-07-18T08:46:07.696Z,24
2016-07-18T08:47:07.706Z,23.63
2016-07-18T08:48:07.734Z,23.47
2016-07-18T08:49:07.715Z,23.4
2016-07-18T08:50:07.730Z,23.24
2016-07-18T08:51:07.729Z,23.06
2016-07-18T08:52:07.727Z,23.1
2016-07-18T08:53:07.911Z,23.16
2016-07-18T08:54:07.720Z,23.26
2016-07-18T08:55:07.717Z,23.09
2016-07-18T08:56:07.720Z,23
2016-07-18T08:57:07.719Z,22.86
2016-07-18T08:58:07.728Z,22.84
2016-07-18T08:59:07.930Z,22.92
2016-07-18T09:00:07.744Z,23.01
2016-07-18T09:01:07.787Z,23.09
2016-07-18T09:02:07.752Z,23.25
2016-07-18T09:03:07.757Z,23.29
2016-07-18T09:04:07.746Z,23.29
2016-07-18T09:05:07.731Z,23.34
2016-07-18T09:06:07.730Z,23.4
2016-07-18T09:07:07.726Z,23.41
2016-07-18T09:08:07.736Z,23.41
2016-07-18T09:09:07.747Z,23.5
2016-07-18T09:10:07.766Z,23.55
2016-07-18T09:11:07.747Z,23.6
2016-07-18T09:12:07.766Z,23.6
2016-07-18T09:13:07.754Z,23.48
2016-07-18T09:14:07.755Z,23.45
2016-07-18T09:15:07.755Z,23.53
2016-07-18T09:16:07.750Z,23.5
2016-07-18T09:17:07.760Z,23.48
2016-07-18T09:18:07.752Z,23.44
2016-07-18T09:19:07.781Z,23.34
2016-07-18T09:20:07.786Z,23.37
2016-07-18T09:21:07.781Z,23.4
2016-07-18T09:22:07.775Z,23.41
2016-07-18T09:23:07.773Z,23.35
2016-07-18T09:24:08.653Z,23.28
2016-07-18T09:25:07.771Z,23.26
2016-07-18T09:26:07.773Z,23.25
2016-07-18T09:27:08.044Z,23.35
2016-07-18T09:28:07.781Z,23.28
2016-07-18T09:29:07.781Z,23.18
2016-07-18T09:30:07.785Z,23
2016-07-18T09:31:07.793Z,22.89
2016-07-18T09:32:07.806Z,22.92
2016-07-18T09:33:07.789Z,22.79
2016-07-18T09:34:07.818Z,22.67
2016-07-18T09:35:07.800Z,22.63
2016-07-18T09:36:07.789Z,22.54
2016-07-18T09:37:07.838Z,22.41
2016-07-18T09:38:07.808Z,22.48
2016-07-18T09:39:07.797Z,22.44
2016-07-18T09:40:07.803Z,22.45
2016-07-18T09:41:07.806Z,22.71
2016-07-18T09:42:07.805Z,22.63
2016-07-18T09:43:07.811Z,22.39
2016-07-18T09:44:07.803Z,22.34
2016-07-18T09:45:07.810Z,22.33
2016-07-18T09:46:07.810Z,22.36
2016-07-18T09:47:07.807Z,22.46
2016-07-18T09:48:07.810Z,22.49
2016-07-18T09:49:07.815Z,22.41
2016-07-18T09:50:07.830Z,22.46
2016-07-18T09:51:08.758Z,22.52
2016-07-18T09:52:07.843Z,22.63
2016-07-18T09:53:07.828Z,22.52
2016-07-18T09:54:07.825Z,22.54
2016-07-18T09:55:07.828Z,22.61
2016-07-18T09:56:07.823Z,22.54
2016-07-18T09:57:07.829Z,22.78
2016-07-18T09:58:07.839Z,22.81
2016-07-18T09:59:07.825Z,22.99
2016-07-18T10:00:07.831Z,22.99
2016-07-18T10:01:07.833Z,23.06
2016-07-18T10:02:07.838Z,23.01
2016-07-18T10:03:07.842Z,23
2016-07-18T10:04:07.835Z,22.88
2016-07-18T10:05:07.836Z,22.63
2016-07-18T10:06:07.845Z,22.54
2016-07-18T10:07:07.843Z,22.45
2016-07-18T10:08:07.849Z,22.51
2016-07-18T10:09:07.855Z,22.44
2016-07-18T10:10:07.863Z,22.45
2016-07-18T10:11:07.853Z,22.39
2016-07-18T10:12:07.857Z,22.36
2016-07-18T10:13:07.849Z,22.33
2016-07-18T10:14:07.850Z,22.2
2016-07-18T10:15:07.852Z,22.14
2016-07-18T10:16:07.852Z,22.22
2016-07-18T10:17:07.930Z,22.45
2016-07-18T10:18:07.861Z,22.69
2016-07-18T10:19:07.861Z,22.79
2016-07-18T10:20:07.877Z,22.76
2016-07-18T10:21:07.873Z,22.66
2016-07-18T10:22:07.874Z,22.45
2016-07-18T10:23:07.866Z,22.31
2016-07-18T10:24:07.868Z,22.24
2016-07-18T10:25:07.871Z,22.05
2016-07-18T10:26:07.873Z,22.09
2016-07-18T10:27:07.882Z,22.27
2016-07-18T10:28:07.888Z,22.36
2016-07-18T10:29:07.878Z,22.46
2016-07-18T10:30:07.904Z,22.48
2016-07-18T10:31:07.881Z,22.6
2016-07-18T10:32:07.889Z,22.63
2016-07-18T10:33:07.891Z,22.52
2016-07-18T10:34:07.888Z,22.46
2016-07-18T10:35:07.885Z,22.41
2016-07-18T10:36:07.898Z,22.29
2016-07-18T10:37:07.891Z,22.31
2016-07-18T10:38:08.034Z,22.33
2016-07-18T10:39:07.895Z,22.12
2016-07-18T10:40:07.912Z,22.24
2016-07-18T10:41:07.898Z,22.3
2016-07-18T10:42:07.900Z,22.42
2016-07-18T10:43:07.906Z,22.38
2016-07-18T10:44:07.908Z,22.49
2016-07-18T10:45:07.912Z,22.66
2016-07-18T10:46:07.907Z,22.73
2016-07-18T10:47:07.942Z,22.79
2016-07-18T10:48:07.917Z,22.86
2016-07-18T10:49:07.915Z,22.81
2016-07-18T10:50:08.626Z,22.82
2016-07-18T10:51:07.913Z,22.79
2016-07-18T10:52:07.919Z,22.69
2016-07-18T10:53:08.623Z,22.76
2016-07-18T10:54:07.921Z,22.85
2016-07-18T10:55:07.920Z,22.81
2016-07-18T10:56:07.934Z,22.86
2016-07-18T10:57:07.931Z,22.88
2016-07-18T10:58:07.927Z,22.88
2016-07-18T10:59:07.926Z,23.03
2016-07-18T11:00:07.938Z,23.03
2016-07-18T11:01:07.933Z,23.1
2016-07-18T11:02:08.650Z,23.24
2016-07-18T11:03:07.939Z,23.25
2016-07-18T11:04:07.932Z,23.4
2016-07-18T11:05:07.956Z,23.34
2016-07-18T11:06:07.954Z,23.37
2016-07-18T11:07:07.973Z,23.32
2016-07-18T11:08:07.939Z,23.34
2016-07-18T11:09:07.951Z,23.24
2016-07-18T11:10:07.953Z,23.32
2016-07-18T11:11:07.949Z,23.5
2016-07-18T11:12:07.949Z,23.56
2016-07-18T11:13:07.954Z,23.52
2016-07-18T11:14:07.954Z,23.52
2016-07-18T11:15:07.961Z,23.6
2016-07-18T11:16:07.969Z,23.5
2016-07-18T11:17:07.960Z,23.52
2016-07-18T11:18:07.962Z,23.52
2016-07-18T11:19:07.966Z,23.59
2016-07-18T11:20:07.969Z,23.71
2016-07-18T11:21:08.006Z,23.72
2016-07-18T11:22:07.985Z,23.84
2016-07-18T11:23:07.973Z,23.87
2016-07-18T11:24:08.001Z,23.87
2016-07-18T11:25:07.982Z,23.77
2016-07-18T11:26:07.988Z,23.77
2016-07-18T11:27:07.994Z,23.78
2016-07-18T11:28:07.995Z,23.79
2016-07-18T11:29:07.991Z,23.64
2016-07-18T11:30:07.992Z,23.59
2016-07-18T11:31:07.998Z,23.52
2016-07-18T11:32:07.997Z,23.67
2016-07-18T11:33:08.003Z,23.72
2016-07-18T11:34:08.009Z,23.66
2016-07-18T11:35:08.004Z,23.67
2016-07-18T11:36:08.728Z,23.62
2016-07-18T11:37:08.063Z,23.57
2016-07-18T11:38:08.020Z,23.41
2016-07-18T11:39:08.018Z,23.44
2016-07-18T11:40:08.020Z,23.44
2016-07-18T11:41:08.023Z,23.28
2016-07-18T11:42:08.028Z,23.4
2016-07-18T11:43:08.031Z,23.38
2016-07-18T11:44:08.037Z,23.47
2016-07-18T11:45:08.862Z,23.45
2016-07-18T11:46:08.868Z,23.45
2016-07-18T11:47:08.068Z,23.47
2016-07-18T11:48:08.037Z,23.47
2016-07-18T11:49:08.756Z,23.53
2016-07-18T11:50:08.050Z,23.56
2016-07-18T11:51:08.052Z,23.63
2016-07-18T11:52:08.063Z,23.64
2016-07-18T11:53:08.066Z,23.79
2016-07-18T11:54:08.062Z,23.85
2016-07-18T11:55:08.066Z,23.82
2016-07-18T11:56:08.060Z,23.89
2016-07-18T11:57:08.079Z,23.99
2016-07-18T11:58:08.073Z,24
2016-07-18T11:59:08.077Z,23.99
2016-07-18T12:00:08.080Z,23.97
2016-07-18T12:01:08.073Z,24.03
2016-07-18T12:02:08.086Z,23.97
2016-07-18T12:03:08.079Z,23.97
2016-07-18T12:04:08.084Z,24.07
2016-07-18T12:05:08.087Z,24.09
2016-07-18T12:06:08.099Z,24.12
2016-07-18T12:07:08.090Z,24.11
2016-07-18T12:08:08.095Z,24.12
2016-07-18T12:09:08.099Z,24
2016-07-18T12:10:08.099Z,23.96
2016-07-18T12:11:08.105Z,23.99
2016-07-18T12:12:08.107Z,23.96
2016-07-18T12:13:08.112Z,24.02
2016-07-18T12:14:08.116Z,24.02
2016-07-18T12:15:08.109Z,24
2016-07-18T12:16:08.129Z,24
2016-07-18T12:17:08.119Z,23.82
2016-07-18T12:18:08.119Z,23.67
2016-07-18T12:19:08.126Z,23.7
2016-07-18T12:20:08.136Z,23.67
2016-07-18T12:21:08.140Z,23.72
2016-07-18T12:22:08.142Z,23.75
2016-07-18T12:23:08.135Z,23.89
2016-07-18T12:24:08.186Z,24.02
2016-07-18T12:25:08.858Z,24.21
2016-07-18T12:26:08.142Z,24.39
2016-07-18T12:27:08.866Z,24.42
2016-07-18T12:28:08.163Z,24.56
2016-07-18T12:29:08.865Z,24.71
2016-07-18T12:30:08.166Z,24.69
2016-07-18T12:31:08.164Z,24.96
2016-07-18T12:32:08.176Z,24.97
2016-07-18T12:33:08.169Z,24.93
2016-07-18T12:34:08.173Z,25
2016-07-18T12:35:08.182Z,25.02
2016-07-18T12:36:08.180Z,25.01
2016-07-18T12:37:08.186Z,25.17
2016-07-18T12:38:08.187Z,25.07
2016-07-18T12:39:08.191Z,25.02
2016-07-18T12:40:08.208Z,25.02
2016-07-18T12:41:08.200Z,25.11
2016-07-18T12:42:08.210Z,25.3
2016-07-18T12:43:08.275Z,25.34
2016-07-18T12:44:08.211Z,25.38
2016-07-18T12:45:08.206Z,25.57
2016-07-18T12:46:08.220Z,25.51
2016-07-18T12:47:08.221Z,25.47
2016-07-18T12:48:08.227Z,25.34
2016-07-18T12:49:08.229Z,25.07
2016-07-18T12:50:08.235Z,24.96
2016-07-18T12:51:08.234Z,24.74
2016-07-18T12:52:08.237Z,24.55
2016-07-18T12:53:08.234Z,24.51
2016-07-18T12:54:08.250Z,24.4
2016-07-18T12:55:08.283Z,24.44
2016-07-18T12:56:08.257Z,24.44